createdAt,value
2018-12-17T00:00:18.767Z,76.80
2018-12-17T00:02:46.240Z,76.70
2018-12-17T00:05:13.677Z,76.50
2018-12-17T00:07:41.132Z,76.70
2018-12-17T00:10:08.578Z,76.80
2018-12-17T00:12:36.048Z,77.60
2018-12-17T00:15:03.530Z,77.10
2018-12-17T00:17:30.975Z,77.10
2018-12-17T00:19:58.416Z,77.10
2018-12-17T00:22:25.877Z,76.70
2018-12-17T00:24:53.349Z,76.70
2018-12-17T00:27:20.849Z,76.70
2018-12-17T00:29:48.297Z,76.70
2018-12-17T00:32:15.750Z,76.50
2018-12-17T00:34:43.289Z,76.20
2018-12-17T00:37:10.730Z,76.20
2018-12-17T00:39:38.173Z,76.10
2018-12-17T00:42:05.620Z,76.20
2018-12-17T00:44:33.055Z,76.20
2018-12-17T00:47:00.529Z,76.40
2018-12-17T00:49:27.959Z,76.60
2018-12-17T00:51:55.428Z,76.20
2018-12-17T00:54:22.873Z,76.00
2018-12-17T00:56:50.329Z,76.00
2018-12-17T00:59:17.776Z,76.80
2018-12-17T01:01:45.235Z,76.20
2018-12-17T01:04:12.681Z,76.40
2018-12-17T01:06:40.203Z,76.30
2018-12-17T01:09:07.660Z,76.50
2018-12-17T01:11:35.121Z,76.50
2018-12-17T01:14:02.556Z,76.20
2018-12-17T01:16:29.983Z,76.30
2018-12-17T01:18:57.431Z,76.20
2018-12-17T01:21:25.395Z,76.40
2018-12-17T01:23:52.909Z,76.30
2018-12-17T01:26:20.981Z,76.40
2018-12-17T01:28:48.666Z,76.40
2018-12-17T01:31:16.100Z,76.20
2018-12-17T01:33:43.557Z,76.40
2018-12-17T01:36:10.996Z,76.10
2018-12-17T01:38:38.448Z,76.30
2018-12-17T01:41:06.233Z,76.20
2018-12-17T01:43:33.688Z,76.10
2018-12-17T01:46:01.119Z,76.00
2018-12-17T01:48:28.569Z,75.80
2018-12-17T01:50:56.019Z,75.90
2018-12-17T01:53:23.476Z,75.70
2018-12-17T01:55:50.920Z,75.50
2018-12-17T01:58:18.372Z,75.80
2018-12-17T02:00:45.928Z,76.00
2018-12-17T02:03:13.398Z,76.00
2018-12-17T02:05:40.841Z,75.80
2018-12-17T02:08:08.309Z,75.70
2018-12-17T02:10:35.781Z,75.70
2018-12-17T02:13:03.247Z,75.40
2018-12-17T02:15:30.694Z,75.70
2018-12-17T02:17:58.156Z,75.70
2018-12-17T02:20:25.600Z,75.70
2018-12-17T02:22:53.048Z,75.60
2018-12-17T02:25:20.498Z,75.30
2018-12-17T02:27:47.956Z,75.50
2018-12-17T02:30:15.411Z,75.30
2018-12-17T02:32:42.934Z,75.10
2018-12-17T02:35:10.380Z,75.20
2018-12-17T02:37:37.807Z,75.00
2018-12-17T02:40:05.445Z,75.20
2018-12-17T02:42:32.889Z,75.20
2018-12-17T02:45:00.363Z,75.20
2018-12-17T02:47:27.797Z,75.40
2018-12-17T02:49:55.255Z,75.40
2018-12-17T02:52:22.684Z,75.30
2018-12-17T02:54:50.155Z,75.20
2018-12-17T02:57:17.624Z,75.20
2018-12-17T02:59:45.085Z,74.90
2018-12-17T03:02:12.541Z,75.00
2018-12-17T03:04:39.976Z,74.90
2018-12-17T03:07:07.428Z,74.70
2018-12-17T03:09:34.875Z,74.40
2018-12-17T03:12:02.323Z,74.70
2018-12-17T03:14:29.761Z,74.60
2018-12-17T03:16:57.296Z,74.80
2018-12-17T03:19:24.847Z,74.50
2018-12-17T03:21:52.372Z,74.50
2018-12-17T03:24:19.825Z,74.50
2018-12-17T03:26:47.280Z,74.70
2018-12-17T03:29:14.733Z,74.80
2018-12-17T03:31:42.427Z,74.80
2018-12-17T03:34:09.954Z,74.80
2018-12-17T03:36:37.406Z,74.70
2018-12-17T03:39:05.905Z,74.70
2018-12-17T03:41:33.334Z,74.40
2018-12-17T03:44:00.806Z,74.40
2018-12-17T03:46:28.240Z,74.30
2018-12-17T03:48:55.696Z,74.30
2018-12-17T03:51:23.125Z,74.40
2018-12-17T03:53:50.587Z,74.40
2018-12-17T03:56:18.036Z,74.70
2018-12-17T03:58:45.467Z,74.50
2018-12-17T04:01:12.923Z,74.40
2018-12-17T04:03:40.351Z,74.30
2018-12-17T04:06:07.797Z,74.60
2018-12-17T04:08:35.242Z,74.60
2018-12-17T04:11:02.687Z,74.50
2018-12-17T04:13:30.144Z,74.50
2018-12-17T04:15:57.620Z,74.40
2018-12-17T04:18:25.692Z,74.30
2018-12-17T04:20:53.138Z,74.20
2018-12-17T04:23:20.576Z,74.20
2018-12-17T04:25:48.037Z,74.20
2018-12-17T04:28:15.568Z,74.30
2018-12-17T04:30:43.025Z,74.00
2018-12-17T04:33:10.476Z,74.20
2018-12-17T04:35:37.962Z,74.50
2018-12-17T04:38:05.396Z,74.20
2018-12-17T04:40:32.843Z,74.30
2018-12-17T04:43:00.293Z,74.00
2018-12-17T04:45:27.748Z,73.90
2018-12-17T04:47:55.200Z,73.80
2018-12-17T04:50:22.644Z,74.10
2018-12-17T04:52:50.088Z,73.80
2018-12-17T04:55:17.541Z,74.30
2018-12-17T04:57:45.299Z,74.10
2018-12-17T05:00:13.017Z,74.10
2018-12-17T05:02:40.477Z,74.20
2018-12-17T05:05:07.927Z,74.10
2018-12-17T05:07:35.373Z,74.20
2018-12-17T05:10:03.602Z,74.10
2018-12-17T05:12:31.045Z,74.10
2018-12-17T05:14:58.492Z,74.30
2018-12-17T05:17:25.925Z,74.30
2018-12-17T05:19:53.432Z,74.00
2018-12-17T05:22:20.849Z,74.20
2018-12-17T05:24:48.303Z,73.90
2018-12-17T05:27:15.736Z,74.00
2018-12-17T05:29:43.200Z,73.80
2018-12-17T05:32:10.640Z,73.80
2018-12-17T05:34:38.078Z,74.20
2018-12-17T05:37:05.568Z,74.40
2018-12-17T05:39:33.003Z,74.30
2018-12-17T05:42:00.459Z,74.40
2018-12-17T05:44:28.064Z,74.50
2018-12-17T05:46:56.030Z,74.20
2018-12-17T05:49:23.474Z,74.20
2018-12-17T05:51:50.992Z,74.30
2018-12-17T05:54:18.477Z,74.60
2018-12-17T05:56:45.928Z,74.60
2018-12-17T05:59:13.439Z,74.50
2018-12-17T06:01:40.889Z,74.40
2018-12-17T06:04:08.325Z,74.40
2018-12-17T06:06:35.782Z,74.40
2018-12-17T06:09:04.350Z,74.50
2018-12-17T06:11:32.062Z,74.40
2018-12-17T06:13:59.491Z,74.50
2018-12-17T06:16:26.972Z,74.50
2018-12-17T06:18:54.418Z,74.50
2018-12-17T06:21:21.854Z,74.60
2018-12-17T06:23:49.348Z,74.70
2018-12-17T06:26:16.790Z,74.80
2018-12-17T06:28:44.221Z,74.60
2018-12-17T06:31:11.693Z,74.70
2018-12-17T06:33:39.114Z,74.70
2018-12-17T06:36:06.559Z,74.80
2018-12-17T06:38:34.016Z,74.80
2018-12-17T06:41:01.470Z,74.70
2018-12-17T06:43:28.916Z,75.20
2018-12-17T06:45:56.401Z,75.10
2018-12-17T06:48:23.832Z,74.90
2018-12-17T06:50:51.279Z,75.80
2018-12-17T06:53:18.721Z,75.00
2018-12-17T06:55:46.155Z,75.00
2018-12-17T06:58:13.837Z,75.10
2018-12-17T07:00:41.275Z,74.80
2018-12-17T07:03:08.789Z,75.00
2018-12-17T07:05:36.233Z,75.00
2018-12-17T07:08:03.683Z,74.90
2018-12-17T07:10:31.128Z,74.90
2018-12-17T07:12:58.584Z,75.50
2018-12-17T07:15:26.040Z,74.70
2018-12-17T07:17:53.480Z,74.80
2018-12-17T07:20:20.912Z,74.80
2018-12-17T07:22:48.365Z,74.70
2018-12-17T07:25:15.841Z,74.90
2018-12-17T07:27:43.296Z,75.10
2018-12-17T07:30:10.741Z,75.00
2018-12-17T07:32:38.205Z,75.50
2018-12-17T07:35:05.687Z,75.50
2018-12-17T07:37:33.121Z,75.30
2018-12-17T07:40:00.575Z,75.50
2018-12-17T07:42:28.008Z,75.70
2018-12-17T07:44:57.092Z,76.70
2018-12-17T07:47:24.512Z,76.00
2018-12-17T07:49:51.956Z,76.00
2018-12-17T07:52:19.459Z,76.00
2018-12-17T07:54:46.897Z,76.20
2018-12-17T07:57:14.339Z,76.80
2018-12-17T07:59:42.075Z,76.40
2018-12-17T08:02:09.531Z,76.80
2018-12-17T08:04:36.999Z,76.50
2018-12-17T08:07:04.456Z,76.80
2018-12-17T08:09:31.911Z,76.80
2018-12-17T08:11:59.398Z,76.70
2018-12-17T08:14:26.864Z,76.80
2018-12-17T08:16:54.558Z,76.40
2018-12-17T08:19:22.092Z,76.40
2018-12-17T08:21:49.642Z,76.60
2018-12-17T08:24:17.087Z,76.30
2018-12-17T08:26:44.612Z,76.20
2018-12-17T08:29:12.077Z,76.30
2018-12-17T08:31:39.526Z,76.40
2018-12-17T08:34:07.004Z,76.30
2018-12-17T08:36:34.449Z,76.30
2018-12-17T08:39:01.957Z,76.40
2018-12-17T08:41:29.391Z,76.70
2018-12-17T08:43:56.831Z,76.60
2018-12-17T08:46:24.306Z,76.70
2018-12-17T08:48:51.758Z,77.00
2018-12-17T08:51:19.183Z,77.10
2018-12-17T08:53:46.625Z,77.10
2018-12-17T08:56:14.080Z,77.30
2018-12-17T08:58:41.544Z,77.40
2018-12-17T09:01:08.989Z,78.00
2018-12-17T09:03:36.435Z,77.70
2018-12-17T09:06:03.889Z,77.70
2018-12-17T09:08:31.407Z,77.70
2018-12-17T09:10:58.839Z,77.80
2018-12-17T09:13:26.286Z,77.50
2018-12-17T09:15:53.727Z,78.00
2018-12-17T09:18:21.269Z,78.20
2018-12-17T09:20:48.743Z,78.90
2018-12-17T09:23:16.176Z,78.00
2018-12-17T09:25:43.675Z,78.20
2018-12-17T09:28:11.109Z,77.90
2018-12-17T09:30:41.535Z,77.90
2018-12-17T09:33:07.992Z,77.90
2018-12-17T09:35:35.431Z,78.10
2018-12-17T09:38:02.864Z,78.20
2018-12-17T09:40:30.305Z,78.00
2018-12-17T09:42:57.885Z,78.00
2018-12-17T09:45:25.337Z,78.10
2018-12-17T09:47:52.768Z,78.10
2018-12-17T09:50:20.200Z,78.10
2018-12-17T09:52:47.647Z,78.20
2018-12-17T09:55:15.108Z,78.00
2018-12-17T09:57:42.547Z,78.20
2018-12-17T10:00:09.976Z,78.10
2018-12-17T10:02:37.404Z,78.20
2018-12-17T10:05:04.914Z,78.40
2018-12-17T10:07:32.345Z,78.40
2018-12-17T10:09:59.823Z,78.40
2018-12-17T10:12:27.283Z,78.40
2018-12-17T10:14:54.731Z,78.20
2018-12-17T10:17:22.167Z,78.50
2018-12-17T10:19:49.617Z,78.60
2018-12-17T10:22:17.039Z,78.70
2018-12-17T10:24:44.478Z,79.00
2018-12-17T10:27:11.901Z,78.70
2018-12-17T10:29:39.342Z,78.70
2018-12-17T10:32:06.802Z,78.80
2018-12-17T10:34:34.304Z,78.80
2018-12-17T10:37:01.744Z,78.90
2018-12-17T10:39:29.174Z,79.10
2018-12-17T10:41:56.699Z,79.10
2018-12-17T10:44:24.142Z,79.20
2018-12-17T10:46:51.642Z,79.10
2018-12-17T10:49:19.063Z,79.10
2018-12-17T10:51:46.513Z,79.10
2018-12-17T10:54:13.956Z,79.10
2018-12-17T10:56:41.400Z,79.20
2018-12-17T10:59:08.909Z,79.20
2018-12-17T11:01:58.208Z,79.50
2018-12-17T11:04:27.585Z,79.70
2018-12-17T11:06:55.058Z,79.30
2018-12-17T11:09:22.490Z,79.50
2018-12-17T11:11:49.919Z,79.60
2018-12-17T11:14:17.368Z,79.70
2018-12-17T11:16:44.821Z,79.80
2018-12-17T11:19:12.263Z,79.70
2018-12-17T11:21:39.719Z,79.70
2018-12-17T11:24:07.147Z,79.40
2018-12-17T11:26:34.597Z,79.50
2018-12-17T11:29:02.032Z,79.90
2018-12-17T11:31:29.463Z,79.50
2018-12-17T11:33:56.908Z,79.40
2018-12-17T11:36:24.340Z,79.60
2018-12-17T11:38:51.777Z,79.40
2018-12-17T11:41:19.291Z,79.60
2018-12-17T11:43:46.735Z,79.70
2018-12-17T11:46:14.177Z,79.70
2018-12-17T11:48:41.748Z,79.50
2018-12-17T11:51:09.208Z,79.60
2018-12-17T11:53:36.656Z,79.80
2018-12-17T11:56:04.179Z,79.80
2018-12-17T11:58:31.625Z,79.60
2018-12-17T12:01:00.008Z,79.50
2018-12-17T12:03:27.456Z,79.70
2018-12-17T12:05:54.899Z,79.70
2018-12-17T12:08:22.335Z,79.90
2018-12-17T12:10:49.786Z,79.80
2018-12-17T12:13:17.301Z,79.90
2018-12-17T12:15:44.739Z,79.70
2018-12-17T12:18:12.163Z,79.80
2018-12-17T12:20:39.608Z,79.90
2018-12-17T12:23:07.056Z,80.10
2018-12-17T12:25:34.504Z,80.00
2018-12-17T12:28:01.955Z,80.40
2018-12-17T12:30:29.397Z,80.00
2018-12-17T12:32:56.891Z,79.80
2018-12-17T12:35:24.322Z,79.70
2018-12-17T12:37:51.806Z,80.10
2018-12-17T12:40:19.298Z,80.00
2018-12-17T12:42:51.532Z,80.00
2018-12-17T12:45:16.208Z,80.10
2018-12-17T12:47:43.654Z,80.10
2018-12-17T12:50:11.101Z,80.20
2018-12-17T12:52:38.549Z,80.20
2018-12-17T12:55:05.983Z,81.10
2018-12-17T12:57:33.439Z,80.40
2018-12-17T13:00:00.879Z,80.50
2018-12-17T13:02:28.321Z,80.80
2018-12-17T13:04:55.752Z,80.90
2018-12-17T13:07:23.196Z,80.70
2018-12-17T13:09:50.628Z,80.90
2018-12-17T13:12:18.079Z,80.90
2018-12-17T13:14:45.561Z,81.10
2018-12-17T13:17:28.589Z,81.00
2018-12-17T13:19:56.067Z,81.20
2018-12-17T13:22:23.568Z,81.40
2018-12-17T13:24:50.995Z,81.30
2018-12-17T13:27:18.456Z,81.40
2018-12-17T13:29:45.903Z,81.40
2018-12-17T13:32:13.363Z,81.40
2018-12-17T13:34:40.797Z,81.50
2018-12-17T13:37:08.271Z,81.40
2018-12-17T13:39:35.714Z,81.50
2018-12-17T13:42:03.163Z,81.50
2018-12-17T13:44:30.606Z,81.60
2018-12-17T13:46:58.071Z,81.70
2018-12-17T13:49:25.605Z,81.50
2018-12-17T13:51:58.658Z,81.60
2018-12-17T13:54:26.084Z,81.40
2018-12-17T13:56:53.547Z,81.50
2018-12-17T13:59:20.963Z,81.20
2018-12-17T14:01:51.585Z,81.50
2018-12-17T14:04:17.855Z,81.40
2018-12-17T14:06:45.307Z,81.20
2018-12-17T14:09:12.763Z,81.50
2018-12-17T14:11:40.232Z,81.20
2018-12-17T14:14:07.671Z,81.30
2018-12-17T14:16:40.707Z,81.40
2018-12-17T14:19:13.919Z,81.40
2018-12-17T14:21:47.094Z,81.40
2018-12-17T14:24:14.595Z,81.40
2018-12-17T14:26:42.021Z,81.40
2018-12-17T14:29:09.511Z,81.50
2018-12-17T14:31:36.948Z,81.70
2018-12-17T14:34:04.431Z,81.40
2018-12-17T14:36:31.864Z,81.50
2018-12-17T14:38:59.333Z,81.50
2018-12-17T14:41:26.765Z,81.40
2018-12-17T14:43:56.151Z,81.30
2018-12-17T14:46:23.605Z,81.40
2018-12-17T14:48:51.057Z,81.70
2018-12-17T14:51:18.491Z,81.30
2018-12-17T14:53:45.927Z,81.30
2018-12-17T14:56:13.360Z,81.40
2018-12-17T14:58:44.347Z,81.20
2018-12-17T15:01:10.281Z,81.30
2018-12-17T15:03:37.746Z,81.20
2018-12-17T15:06:05.273Z,81.20
2018-12-17T15:08:32.719Z,80.90
2018-12-17T15:11:00.151Z,81.00
2018-12-17T15:13:27.595Z,80.80
2018-12-17T15:15:55.057Z,81.00
2018-12-17T15:18:22.523Z,80.80
2018-12-17T15:20:49.963Z,80.70
2018-12-17T15:23:17.401Z,80.50
2018-12-17T15:25:44.964Z,80.50
2018-12-17T15:28:12.419Z,80.50
2018-12-17T15:30:39.996Z,80.50
2018-12-17T15:33:07.514Z,80.40
2018-12-17T15:35:34.943Z,80.50
2018-12-17T15:38:02.397Z,80.50
2018-12-17T15:40:29.836Z,80.70
2018-12-17T15:42:57.295Z,80.60
2018-12-17T15:45:24.747Z,80.70
2018-12-17T15:47:52.228Z,80.40
2018-12-17T15:50:19.666Z,80.40
2018-12-17T15:52:47.136Z,80.70
2018-12-17T15:55:14.569Z,80.60
2018-12-17T15:57:42.032Z,80.70
2018-12-17T16:00:10.405Z,80.80
2018-12-17T16:02:38.134Z,80.70
2018-12-17T16:05:05.650Z,80.60
2018-12-17T16:07:33.097Z,80.70
2018-12-17T16:10:00.743Z,80.70
2018-12-17T16:12:28.490Z,80.80
2018-12-17T16:14:56.343Z,80.90
2018-12-17T16:17:23.775Z,80.80
2018-12-17T16:19:51.212Z,82.00
2018-12-17T16:22:18.670Z,81.30
2018-12-17T16:24:46.135Z,81.10
2018-12-17T16:27:19.261Z,81.00
2018-12-17T16:29:43.104Z,81.00
2018-12-17T16:32:10.542Z,81.20
2018-12-17T16:34:38.018Z,81.00
2018-12-17T16:37:05.462Z,81.10
2018-12-17T16:39:32.900Z,81.30
2018-12-17T16:42:00.412Z,81.40
2018-12-17T16:44:28.123Z,81.30
2018-12-17T16:46:55.587Z,81.20
2018-12-17T16:49:23.025Z,81.20
2018-12-17T16:51:50.469Z,81.40
2018-12-17T16:54:17.917Z,81.50
2018-12-17T16:56:45.350Z,81.40
2018-12-17T16:59:12.788Z,81.50
2018-12-17T17:01:40.292Z,81.70
2018-12-17T17:04:07.755Z,81.40
2018-12-17T17:06:35.186Z,81.40
2018-12-17T17:09:03.499Z,81.40
2018-12-17T17:11:31.322Z,81.30
2018-12-17T17:13:58.781Z,81.40
2018-12-17T17:16:26.251Z,81.70
2018-12-17T17:18:53.703Z,81.50
2018-12-17T17:21:21.133Z,81.40
2018-12-17T17:23:48.578Z,81.50
2018-12-17T17:26:16.020Z,81.40
2018-12-17T17:28:43.460Z,81.20
2018-12-17T17:31:10.896Z,81.00
2018-12-17T17:33:38.373Z,81.20
2018-12-17T17:36:05.804Z,81.20
2018-12-17T17:38:33.464Z,81.40
2018-12-17T17:41:00.889Z,81.30
2018-12-17T17:43:28.315Z,81.30
2018-12-17T17:45:55.843Z,81.20
2018-12-17T17:48:23.291Z,81.10
2018-12-17T17:50:50.756Z,81.10
2018-12-17T17:53:18.285Z,81.30
2018-12-17T17:55:45.728Z,81.10
2018-12-17T17:58:13.180Z,81.00
2018-12-17T18:00:40.676Z,81.00
2018-12-17T18:03:08.107Z,81.10
2018-12-17T18:05:35.709Z,80.90
2018-12-17T18:08:03.155Z,80.90
2018-12-17T18:10:30.600Z,81.50
2018-12-17T18:12:58.036Z,80.50
2018-12-17T18:15:25.522Z,80.40
2018-12-17T18:17:52.975Z,80.40
2018-12-17T18:20:20.433Z,80.30
2018-12-17T18:22:47.863Z,80.40
2018-12-17T18:25:15.392Z,80.30
2018-12-17T18:27:42.972Z,80.10
2018-12-17T18:30:10.406Z,80.00
2018-12-17T18:32:37.847Z,80.00
2018-12-17T18:35:05.307Z,80.00
2018-12-17T18:37:32.758Z,80.00
2018-12-17T18:40:00.222Z,79.50
2018-12-17T18:42:27.666Z,79.20
2018-12-17T18:44:55.096Z,79.30
2018-12-17T18:47:25.776Z,79.20
2018-12-17T18:49:52.012Z,79.20
2018-12-17T18:52:19.585Z,79.20
2018-12-17T18:54:47.029Z,79.00
2018-12-17T18:57:14.495Z,78.90
2018-12-17T18:59:42.067Z,78.80
2018-12-17T19:02:09.561Z,78.90
2018-12-17T19:04:37.112Z,78.80
2018-12-17T19:07:04.536Z,78.70
2018-12-17T19:09:32.002Z,78.60
2018-12-17T19:11:59.479Z,78.40
2018-12-17T19:14:26.933Z,78.20
2018-12-17T19:16:54.396Z,78.20
2018-12-17T19:19:21.848Z,78.10
2018-12-17T19:21:49.306Z,78.00
2018-12-17T19:24:16.754Z,77.80
2018-12-17T19:26:44.185Z,77.90
2018-12-17T19:29:11.632Z,78.00
2018-12-17T19:31:39.097Z,78.00
2018-12-17T19:34:06.545Z,78.10
2018-12-17T19:36:34.004Z,78.10
2018-12-17T19:39:01.436Z,78.20
2018-12-17T19:41:28.907Z,78.10
2018-12-17T19:43:56.351Z,78.10
2018-12-17T19:46:23.808Z,78.10
2018-12-17T19:48:51.294Z,78.00
2018-12-17T19:51:18.740Z,78.10
2018-12-17T19:53:46.178Z,78.10
2018-12-17T19:56:13.638Z,78.00
2018-12-17T19:58:41.077Z,77.80
2018-12-17T20:01:08.525Z,77.80
2018-12-17T20:03:35.996Z,77.70
2018-12-17T20:06:03.437Z,77.70
2018-12-17T20:08:30.885Z,77.80
2018-12-17T20:10:58.332Z,77.70
2018-12-17T20:13:25.770Z,77.80
2018-12-17T20:15:53.208Z,77.80
2018-12-17T20:18:20.643Z,77.90
2018-12-17T20:20:48.098Z,77.90
2018-12-17T20:23:15.539Z,78.80
2018-12-17T20:25:43.030Z,77.70
2018-12-17T20:28:10.476Z,78.10
2018-12-17T20:30:37.988Z,77.80
2018-12-17T20:33:05.454Z,77.70
2018-12-17T20:35:32.908Z,77.50
2018-12-17T20:38:00.377Z,77.40
2018-12-17T20:40:27.819Z,77.70
2018-12-17T20:42:55.277Z,77.60
2018-12-17T20:45:22.839Z,77.50
2018-12-17T20:47:50.321Z,77.70
2018-12-17T20:50:17.772Z,77.50
2018-12-17T20:52:45.227Z,77.40
2018-12-17T20:55:12.669Z,77.60
2018-12-17T20:57:40.133Z,77.40
2018-12-17T21:00:07.575Z,77.20
2018-12-17T21:02:35.081Z,77.10
2018-12-17T21:05:02.543Z,77.30
2018-12-17T21:07:30.039Z,77.10
2018-12-17T21:09:57.529Z,77.20
2018-12-17T21:12:25.097Z,77.30
2018-12-17T21:14:52.673Z,77.20
2018-12-17T21:17:20.131Z,77.50
2018-12-17T21:19:47.599Z,77.40
2018-12-17T21:22:15.093Z,77.30
2018-12-17T21:24:42.583Z,77.20
2018-12-17T21:27:10.120Z,77.50
2018-12-17T21:29:37.587Z,77.50
2018-12-17T21:32:05.031Z,77.50
2018-12-17T21:34:32.481Z,77.50
2018-12-17T21:37:00.063Z,77.50
2018-12-17T21:39:27.500Z,77.60
2018-12-17T21:41:54.957Z,77.60
2018-12-17T21:44:22.414Z,77.60
2018-12-17T21:46:49.945Z,77.80
2018-12-17T21:49:17.402Z,77.80
2018-12-17T21:51:44.835Z,78.00
2018-12-17T21:54:12.289Z,78.10
2018-12-17T21:56:39.744Z,78.00
2018-12-17T21:59:07.208Z,78.10
2018-12-17T22:01:34.689Z,78.10
2018-12-17T22:04:02.146Z,78.30
2018-12-17T22:06:29.605Z,78.30
2018-12-17T22:08:57.035Z,78.50
2018-12-17T22:11:24.495Z,78.40
2018-12-17T22:13:51.946Z,78.30
2018-12-17T22:16:19.408Z,78.50
2018-12-17T22:18:46.859Z,78.50
2018-12-17T22:21:14.298Z,78.40
2018-12-17T22:23:41.735Z,78.50
2018-12-17T22:26:09.196Z,78.50
2018-12-17T22:28:36.679Z,78.50
2018-12-17T22:31:04.135Z,79.40
2018-12-17T22:33:31.592Z,78.50
2018-12-17T22:35:59.030Z,78.70
2018-12-17T22:38:26.481Z,78.80
2018-12-17T22:40:53.943Z,78.60
2018-12-17T22:43:21.396Z,78.60
2018-12-17T22:45:48.864Z,78.60
2018-12-17T22:48:16.365Z,78.70
2018-12-17T22:50:43.784Z,78.70
2018-12-17T22:53:11.245Z,78.70
2018-12-17T22:55:38.671Z,78.80
2018-12-17T22:58:06.162Z,78.80
2018-12-17T23:00:33.673Z,79.00
2018-12-17T23:03:01.119Z,79.10
2018-12-17T23:05:29.847Z,78.70
2018-12-17T23:07:57.300Z,78.80
2018-12-17T23:10:38.738Z,79.10
2018-12-17T23:13:18.132Z,78.90
2018-12-17T23:15:57.489Z,78.80
2018-12-17T23:18:24.878Z,79.80
2018-12-17T23:20:52.333Z,79.00
2018-12-17T23:23:19.813Z,79.10
2018-12-17T23:25:47.249Z,79.20
2018-12-17T23:28:14.689Z,79.10
2018-12-17T23:30:42.132Z,79.10
2018-12-17T23:33:09.615Z,79.10
2018-12-17T23:35:37.065Z,79.10
2018-12-17T23:38:04.511Z,79.00
2018-12-17T23:40:32.143Z,79.00
2018-12-17T23:42:59.648Z,79.00
2018-12-17T23:45:27.103Z,79.00
2018-12-17T23:47:54.531Z,79.10
2018-12-17T23:50:21.981Z,79.20
2018-12-17T23:52:49.448Z,79.20
2018-12-17T23:55:17.029Z,79.30
2018-12-17T23:57:44.556Z,79.10
